createdAt,value
2023-01-20T00:00:46.457Z,2.50
2023-01-20T00:05:39.470Z,1.90
2023-01-20T00:10:32.540Z,2.13
2023-01-20T00:15:26.412Z,1.85
2023-01-20T00:20:19.691Z,3.42
2023-01-20T00:25:13.021Z,2.22
2023-01-20T00:30:07.920Z,1.77
2023-01-20T00:35:00.575Z,1.98
2023-01-20T00:39:54.298Z,2.22
2023-01-20T00:44:48.085Z,4.75
2023-01-20T00:49:42.193Z,3.55
2023-01-20T00:54:35.984Z,1.70
2023-01-20T00:59:29.644Z,1.55
2023-01-20T01:04:23.688Z,1.25
2023-01-20T01:09:16.973Z,2.55
2023-01-20T01:14:10.999Z,4.30
2023-01-20T01:19:04.760Z,2.10
2023-01-20T01:23:58.131Z,1.52
2023-01-20T01:28:51.207Z,2.03
2023-01-20T01:33:44.364Z,1.90
2023-01-20T01:38:38.324Z,3.03
2023-01-20T01:43:35.054Z,1.60
2023-01-20T01:48:36.285Z,1.73
2023-01-20T01:53:34.569Z,1.80
2023-01-20T01:58:33.449Z,1.98
2023-01-20T02:03:34.327Z,2.17
2023-01-20T02:08:29.107Z,1.92
2023-01-20T02:13:22.943Z,2.42
2023-01-20T02:18:31.285Z,2.20
2023-01-20T02:23:42.278Z,2.33
2023-01-20T02:29:10.408Z,1.63
2023-01-20T02:34:35.515Z,1.80
2023-01-20T02:39:44.608Z,2.33
2023-01-20T02:44:52.613Z,2.97
2023-01-20T02:50:14.333Z,2.03
2023-01-20T02:55:11.283Z,1.45
2023-01-20T03:00:21.429Z,1.92
2023-01-20T03:05:21.905Z,2.08
2023-01-20T03:10:20.940Z,2.85
2023-01-20T03:15:15.223Z,1.67
2023-01-20T03:20:10.967Z,1.25
2023-01-20T03:25:04.615Z,1.35
2023-01-20T03:29:58.889Z,1.73
2023-01-20T03:34:52.601Z,1.63
2023-01-20T03:39:45.551Z,1.48
2023-01-20T03:44:47.592Z,1.70
2023-01-20T03:50:05.708Z,1.50
2023-01-20T03:55:05.009Z,3.80
2023-01-20T03:59:59.750Z,1.55
2023-01-20T04:04:55.264Z,1.17
2023-01-20T04:09:52.913Z,1.33
2023-01-20T04:14:50.541Z,1.27
2023-01-20T04:19:43.540Z,1.52
2023-01-20T04:24:36.783Z,1.15
2023-01-20T04:29:30.113Z,1.25
2023-01-20T04:34:23.594Z,1.92
2023-01-20T04:39:17.519Z,2.92
2023-01-20T04:44:10.604Z,1.20
2023-01-20T04:49:04.415Z,1.40
2023-01-20T04:53:59.145Z,1.20
2023-01-20T04:58:53.357Z,1.08
2023-01-20T05:03:47.331Z,1.05
2023-01-20T05:08:40.708Z,1.90
2023-01-20T05:13:38.942Z,1.30
2023-01-20T05:18:33.495Z,1.20
2023-01-20T05:23:27.261Z,1.50
2023-01-20T05:28:21.230Z,1.20
2023-01-20T05:33:15.246Z,1.80
2023-01-20T05:38:08.911Z,1.33
2023-01-20T05:43:02.658Z,1.60
2023-01-20T05:47:58.539Z,4.65
2023-01-20T05:52:51.819Z,1.80
2023-01-20T05:57:45.580Z,2.05
2023-01-20T06:02:39.585Z,1.73
2023-01-20T06:07:33.228Z,2.13
2023-01-20T06:12:26.833Z,1.40
2023-01-20T06:17:19.737Z,1.42
2023-01-20T06:22:35.050Z,1.52
2023-01-20T06:27:28.324Z,2.33
2023-01-20T06:32:21.925Z,5.47
2023-01-20T06:37:14.954Z,1.13
2023-01-20T06:42:08.291Z,9.80
2023-01-20T06:47:01.887Z,3.25
2023-01-20T06:51:55.021Z,6.10
2023-01-20T06:56:49.235Z,1.58
2023-01-20T07:01:42.929Z,1.83
2023-01-20T07:06:39.099Z,8.82
2023-01-20T07:11:32.536Z,2.60
2023-01-20T07:16:26.893Z,4.40
2023-01-20T07:21:20.856Z,7.10
2023-01-20T07:26:18.889Z,2.35
2023-01-20T07:31:15.079Z,3.28
2023-01-20T07:36:09.795Z,3.53
2023-01-20T07:41:05.435Z,3.33
2023-01-20T07:46:03.631Z,6.40
2023-01-20T07:51:05.896Z,3.80
2023-01-20T07:56:02.594Z,1.55
2023-01-20T08:00:55.603Z,2.58
2023-01-20T08:05:49.123Z,1.48
2023-01-20T08:10:42.386Z,1.27
2023-01-20T08:15:35.824Z,1.10
2023-01-20T08:20:29.537Z,2.33
2023-01-20T08:25:23.532Z,1.75
2023-01-20T08:30:17.360Z,2.47
2023-01-20T08:35:09.750Z,2.28
2023-01-20T08:40:04.529Z,3.58
2023-01-20T08:45:02.984Z,2.10
2023-01-20T08:49:57.298Z,1.88
2023-01-20T08:54:53.802Z,1.30
2023-01-20T08:59:47.743Z,1.17
2023-01-20T09:04:45.810Z,1.50
2023-01-20T09:09:39.980Z,3.05
2023-01-20T09:14:33.704Z,1.80
2023-01-20T09:19:27.006Z,1.25
2023-01-20T09:24:21.162Z,0.88
2023-01-20T09:29:18.281Z,0.73
2023-01-20T09:34:15.283Z,1.02
2023-01-20T09:39:27.902Z,2.05
2023-01-20T09:44:50.975Z,1.42
2023-01-20T09:50:39.676Z,1.77
2023-01-20T09:55:32.841Z,1.38
2023-01-20T10:00:32.127Z,1.00
2023-01-20T10:05:34.722Z,0.70
2023-01-20T10:10:36.497Z,1.33
2023-01-20T10:15:36.343Z,0.90
2023-01-20T10:20:49.315Z,1.23
2023-01-20T10:25:54.276Z,1.50
2023-01-20T10:30:48.726Z,1.52
2023-01-20T10:35:47.286Z,1.30
2023-01-20T10:41:20.375Z,1.40
2023-01-20T10:46:53.221Z,1.33
2023-01-20T10:52:29.061Z,1.08
2023-01-20T10:57:22.771Z,1.02
2023-01-20T11:02:23.658Z,1.70
2023-01-20T11:12:17.325Z,1.00
2023-01-20T11:17:16.310Z,1.55
2023-01-20T11:22:15.825Z,0.73
2023-01-20T11:27:15.562Z,2.35
2023-01-20T11:32:25.335Z,0.82
2023-01-20T11:37:21.966Z,0.80
2023-01-20T11:42:25.221Z,0.90
2023-01-20T11:47:34.947Z,0.82
2023-01-20T11:52:28.764Z,0.60
2023-01-20T11:57:23.023Z,1.08
2023-01-20T12:02:15.873Z,1.15
2023-01-20T12:07:22.123Z,1.15
2023-01-20T12:12:41.510Z,0.65
2023-01-20T12:17:37.699Z,1.05
2023-01-20T12:22:36.044Z,0.90
2023-01-20T12:27:29.471Z,4.32
2023-01-20T12:32:22.201Z,6.70
2023-01-20T12:37:32.557Z,8.20
2023-01-20T12:42:25.367Z,8.23
2023-01-20T12:47:59.512Z,9.75
2023-01-20T12:53:28.357Z,12.05
2023-01-20T12:58:27.249Z,9.73
2023-01-20T13:03:50.184Z,10.57
2023-01-20T13:08:52.173Z,12.10
2023-01-20T13:13:56.886Z,9.82
2023-01-20T13:19:20.213Z,11.43
2023-01-20T13:24:30.060Z,9.85
2023-01-20T13:29:52.121Z,10.73
2023-01-20T13:34:45.776Z,7.05
2023-01-20T13:39:49.417Z,5.78
2023-01-20T13:44:57.241Z,5.30
2023-01-20T13:49:52.222Z,4.00
2023-01-20T13:54:47.474Z,3.63
2023-01-20T13:59:41.512Z,3.30
2023-01-20T14:04:35.067Z,2.50
2023-01-20T14:09:33.097Z,3.40
2023-01-20T14:14:27.863Z,2.33
2023-01-20T14:19:33.565Z,2.47
2023-01-20T14:25:00.971Z,3.80
2023-01-20T14:29:55.788Z,1.60
2023-01-20T14:34:49.063Z,2.40
2023-01-20T14:39:42.996Z,2.25
2023-01-20T14:44:36.529Z,2.40
2023-01-20T14:49:35.724Z,2.35
2023-01-20T14:54:42.376Z,1.60
2023-01-20T14:59:36.256Z,1.88
2023-01-20T15:04:37.671Z,1.60
2023-01-20T15:09:33.736Z,1.35
2023-01-20T15:14:33.349Z,2.08
2023-01-20T15:19:33.476Z,2.92
2023-01-20T15:24:35.930Z,1.33
2023-01-20T15:29:34.018Z,1.38
2023-01-20T15:34:28.618Z,1.60
2023-01-20T15:39:24.234Z,2.22
2023-01-20T15:44:18.475Z,1.77
2023-01-20T15:49:12.292Z,1.42
2023-01-20T15:54:08.176Z,1.40
2023-01-20T15:59:01.056Z,2.17
2023-01-20T16:03:58.160Z,1.30
2023-01-20T16:08:52.111Z,1.33
2023-01-20T16:13:46.775Z,1.38
2023-01-20T16:18:39.756Z,2.00
2023-01-20T16:23:33.664Z,3.42
2023-01-20T16:28:26.666Z,2.35
2023-01-20T16:33:27.570Z,1.40
2023-01-20T16:38:23.848Z,3.03
2023-01-20T16:43:18.534Z,1.73
2023-01-20T16:48:13.433Z,1.45
2023-01-20T16:53:07.178Z,2.25
2023-01-20T16:58:00.811Z,2.35
2023-01-20T17:02:53.548Z,2.30
2023-01-20T17:07:46.855Z,1.58
2023-01-20T17:12:39.895Z,2.00
2023-01-20T17:17:33.848Z,1.90
2023-01-20T17:22:27.705Z,4.47
2023-01-20T17:27:25.222Z,2.67
2023-01-20T17:32:19.512Z,11.07
2023-01-20T17:37:14.571Z,3.13
2023-01-20T17:42:08.559Z,5.60
2023-01-20T17:47:01.851Z,7.07
2023-01-20T17:51:55.146Z,3.65
2023-01-20T17:56:49.355Z,4.35
2023-01-20T18:01:44.911Z,3.30
2023-01-20T18:06:38.376Z,2.20
2023-01-20T18:11:33.876Z,5.00
2023-01-20T18:16:32.191Z,2.95
2023-01-20T18:21:30.604Z,6.82
2023-01-20T18:26:26.082Z,7.68
2023-01-20T18:31:21.930Z,8.02
2023-01-20T18:36:26.474Z,123.05
2023-01-20T18:41:20.448Z,79.45
2023-01-20T18:46:13.626Z,71.47
2023-01-20T18:51:07.499Z,90.88
2023-01-20T18:56:06.222Z,77.57
2023-01-20T19:01:07.656Z,75.80
2023-01-20T19:06:26.092Z,103.80
2023-01-20T19:11:42.043Z,94.22
2023-01-20T19:16:39.845Z,79.00
2023-01-20T19:21:33.704Z,71.68
2023-01-20T19:26:28.264Z,54.20
2023-01-20T19:31:21.381Z,46.92
2023-01-20T19:36:18.222Z,36.55
2023-01-20T19:41:13.073Z,32.05
2023-01-20T19:46:08.645Z,25.05
2023-01-20T19:51:14.647Z,26.60
2023-01-20T19:56:17.162Z,21.77
2023-01-20T20:01:15.974Z,16.00
2023-01-20T20:06:21.726Z,21.50
2023-01-20T20:11:15.862Z,21.17
2023-01-20T20:16:09.876Z,17.75
2023-01-20T20:21:04.211Z,16.35
2023-01-20T20:25:57.274Z,17.92
2023-01-20T20:30:51.892Z,18.98
2023-01-20T20:35:45.756Z,15.10
2023-01-20T20:40:38.848Z,15.25
2023-01-20T20:45:32.378Z,11.55
2023-01-20T20:50:26.376Z,17.48
2023-01-20T20:55:20.651Z,11.23
2023-01-20T21:00:16.492Z,8.27
2023-01-20T21:05:11.048Z,11.25
2023-01-20T21:10:05.749Z,8.30
2023-01-20T21:14:59.700Z,11.48
2023-01-20T21:19:53.167Z,10.35
2023-01-20T21:24:47.024Z,8.52
2023-01-20T21:29:43.982Z,6.00
2023-01-20T21:34:36.901Z,5.50
2023-01-20T21:39:30.383Z,4.78
2023-01-20T21:44:29.271Z,6.15
2023-01-20T21:49:40.842Z,7.32
2023-01-20T21:54:35.566Z,4.53
2023-01-20T21:59:28.872Z,9.63
2023-01-20T22:04:23.015Z,5.03
2023-01-20T22:09:15.895Z,4.40
2023-01-20T22:14:10.293Z,7.55
2023-01-20T22:19:03.700Z,4.97
2023-01-20T22:23:57.171Z,4.57
2023-01-20T22:28:50.828Z,7.40
2023-01-20T22:33:44.724Z,8.45
2023-01-20T22:38:37.500Z,7.18
2023-01-20T22:43:31.338Z,7.20
2023-01-20T22:48:24.802Z,5.18
2023-01-20T22:53:18.324Z,6.13
2023-01-20T22:58:13.265Z,8.13
2023-01-20T23:03:12.953Z,6.43
2023-01-20T23:08:06.899Z,4.88
2023-01-20T23:13:00.443Z,4.05
2023-01-20T23:17:54.619Z,6.78
2023-01-20T23:22:48.008Z,3.90
2023-01-20T23:27:41.561Z,3.65
2023-01-20T23:32:36.031Z,4.15
2023-01-20T23:37:30.198Z,5.00
2023-01-20T23:42:23.797Z,5.15
2023-01-20T23:47:18.638Z,4.07
2023-01-20T23:52:12.975Z,5.55
2023-01-20T23:57:05.074Z,11.77
